Time;durP1;ratioP1;P1;durP2;ratioP2;P2;SDS_P1;SDS_P2;PMS_P1;PMS_P2;Temp;Humidity;BMP_temperature;BMP_pressure;BME280_temperature;BME280_humidity;BME280_pressure;Samples;Min_cycle;Max_cycle;Signal;HPM_P1;HPM_P2
2021/10/12 00:00:06;;;;;;;23.23;14.43;;;13.30;59.80;;;;;;5053679;28;20017;-69
2021/10/12 00:02:32;;;;;;;21.95;14.73;;;13.30;59.90;;;;;;5053415;28;20032;-68
2021/10/12 00:04:58;;;;;;;20.40;13.77;;;13.30;60.10;;;;;;5053651;28;20021;-68
2021/10/12 00:07:25;;;;;;;25.92;15.98;;;13.30;60.20;;;;;;5053415;28;20486;-68
2021/10/12 00:09:50;;;;;;;20.38;14.80;;;13.30;60.80;;;;;;5053483;28;20072;-69
2021/10/12 00:12:16;;;;;;;24.05;14.55;;;13.30;60.90;;;;;;5053486;28;20516;-68
2021/10/12 00:14:42;;;;;;;23.27;15.93;;;13.30;61.10;;;;;;5053327;28;20475;-68
2021/10/12 00:17:08;;;;;;;21.73;15.35;;;13.30;61.00;;;;;;5053334;28;20505;-69
2021/10/12 00:19:34;;;;;;;21.95;14.32;;;13.30;61.10;;;;;;5053223;28;20174;-68
2021/10/12 00:22:00;;;;;;;23.27;15.27;;;13.30;61.10;;;;;;5053241;28;20029;-67
2021/10/12 00:24:26;;;;;;;31.13;16.45;;;13.20;61.40;;;;;;5053230;28;20024;-67
2021/10/12 00:26:51;;;;;;;23.92;14.50;;;13.20;61.40;;;;;;5053026;28;20024;-68
2021/10/12 00:29:17;;;;;;;27.23;16.40;;;13.20;61.40;;;;;;5053180;28;20125;-67
2021/10/12 00:31:43;;;;;;;20.60;13.98;;;13.20;61.60;;;;;;5053151;28;20032;-68
2021/10/12 00:34:09;;;;;;;23.10;15.15;;;13.20;61.60;;;;;;5053046;28;20052;-67
2021/10/12 00:36:34;;;;;;;23.77;15.68;;;13.20;61.90;;;;;;5052869;28;20029;-67
2021/10/12 00:39:02;;;;;;;25.48;17.42;;;13.20;61.90;;;;;;5053004;28;20437;-69
2021/10/12 00:41:28;;;;;;;24.98;16.67;;;13.20;62.10;;;;;;5053269;28;20021;-67
2021/10/12 00:43:54;;;;;;;28.50;18.27;;;13.20;62.30;;;;;;5053006;28;20025;-67
2021/10/12 00:46:20;;;;;;;30.42;19.45;;;13.20;62.40;;;;;;5052877;28;20360;-67
2021/10/12 00:48:46;;;;;;;25.23;16.65;;;13.20;62.50;;;;;;5052875;28;20021;-68
2021/10/12 00:51:12;;;;;;;26.58;17.65;;;13.20;62.50;;;;;;5052847;28;20049;-68
2021/10/12 00:53:37;;;;;;;30.52;19.73;;;13.20;62.50;;;;;;5052840;28;20055;-67
2021/10/12 00:56:04;;;;;;;34.10;18.63;;;13.20;63.10;;;;;;5052775;28;20028;-68
2021/10/12 00:58:30;;;;;;;26.58;18.17;;;13.20;63.40;;;;;;5052781;28;20482;-68
2021/10/12 01:00:56;;;;;;;30.77;19.75;;;13.10;63.60;;;;;;5052741;28;20036;-68
2021/10/12 01:03:22;;;;;;;28.70;18.38;;;13.10;64.00;;;;;;5051092;28;20406;-68
2021/10/12 01:05:48;;;;;;;23.80;17.13;;;13.00;64.80;;;;;;5052519;28;20029;-68
2021/10/12 01:08:17;;;;;;;29.13;19.73;;;13.00;64.10;;;;;;5052591;28;20028;-68
2021/10/12 01:10:43;;;;;;;28.10;18.48;;;13.00;64.30;;;;;;5052556;28;20028;-68
2021/10/12 01:13:09;;;;;;;28.80;19.52;;;13.00;64.30;;;;;;5052424;28;20025;-68
2021/10/12 01:15:34;;;;;;;31.70;20.23;;;12.90;64.60;;;;;;5052588;28;20475;-68
2021/10/12 01:18:01;;;;;;;36.15;21.65;;;12.90;65.00;;;;;;5052502;28;20360;-68
2021/10/12 01:20:27;;;;;;;34.83;21.98;;;12.90;65.20;;;;;;5052411;28;20017;-68
2021/10/12 01:22:54;;;;;;;32.78;20.55;;;12.80;65.20;;;;;;5052394;28;20021;-68
2021/10/12 01:25:21;;;;;;;30.67;21.77;;;12.80;65.30;;;;;;5052362;28;20025;-68
2021/10/12 01:27:47;;;;;;;30.73;21.35;;;12.70;65.50;;;;;;5052301;28;20428;-68
2021/10/12 01:30:13;;;;;;;30.40;20.80;;;12.70;65.50;;;;;;5052329;28;20021;-68
2021/10/12 01:32:41;;;;;;;33.33;22.10;;;12.60;65.60;;;;;;5052379;28;20470;-68
2021/10/12 01:35:08;;;;;;;31.35;19.63;;;12.60;65.70;;;;;;5052120;28;20025;-68
2021/10/12 01:37:35;;;;;;;28.15;19.20;;;12.60;65.90;;;;;;5050977;28;20086;-68
2021/10/12 01:40:01;;;;;;;32.05;21.30;;;12.60;65.80;;;;;;5051052;28;20025;-68
2021/10/12 01:42:27;;;;;;;32.85;21.50;;;12.60;65.80;;;;;;5050990;28;20025;-68
2021/10/12 01:44:53;;;;;;;32.28;21.73;;;12.50;65.80;;;;;;5054217;28;20118;-68
2021/10/12 01:47:20;;;;;;;33.38;21.98;;;12.50;66.00;;;;;;5051490;28;20021;-68
2021/10/12 01:49:47;;;;;;;34.15;21.40;;;12.50;66.10;;;;;;5055046;28;20028;-68
2021/10/12 01:52:13;;;;;;;25.80;19.08;;;12.50;66.30;;;;;;5055464;28;20024;-68
2021/10/12 01:54:39;;;;;;;32.35;21.48;;;12.50;66.30;;;;;;5055880;28;20021;-68
2021/10/12 01:57:05;;;;;;;38.55;21.02;;;12.50;66.40;;;;;;5055872;28;20096;-68
2021/10/12 01:59:31;;;;;;;31.85;20.83;;;12.50;66.40;;;;;;5055819;28;20045;-69
2021/10/12 02:02:01;;;;;;;28.30;20.25;;;12.60;66.50;;;;;;5054653;28;20082;-69
2021/10/12 02:04:27;;;;;;;29.52;19.88;;;12.60;66.50;;;;;;5055726;28;20587;-69
2021/10/12 02:06:53;;;;;;;28.95;19.13;;;12.60;66.50;;;;;;5055694;28;20382;-69
2021/10/12 02:09:19;;;;;;;29.35;19.30;;;12.60;66.50;;;;;;5055666;28;20036;-69
2021/10/12 02:11:46;;;;;;;25.13;18.17;;;12.70;66.50;;;;;;5055601;28;20112;-69
2021/10/12 02:14:12;;;;;;;29.27;21.10;;;12.70;66.30;;;;;;5055589;28;20382;-69
2021/10/12 02:16:38;;;;;;;32.17;21.90;;;12.70;66.30;;;;;;5055544;28;20028;-69
2021/10/12 02:19:04;;;;;;;32.10;21.80;;;12.70;66.30;;;;;;5054138;28;20399;-69
2021/10/12 02:21:30;;;;;;;27.10;17.90;;;12.80;66.30;;;;;;5055488;28;20040;-69
2021/10/12 02:23:55;;;;;;;35.38;24.30;;;12.80;66.20;;;;;;5055410;28;20021;-69
2021/10/12 02:26:21;;;;;;;37.75;21.75;;;12.80;67.20;;;;;;5055278;28;20364;-69
2021/10/12 02:28:47;;;;;;;34.22;22.30;;;12.80;66.40;;;;;;5055368;28;20482;-69
2021/10/12 02:31:13;;;;;;;28.38;18.92;;;12.90;66.40;;;;;;5055248;28;20470;-69
2021/10/12 02:33:39;;;;;;;33.58;21.40;;;12.90;66.30;;;;;;5055239;28;20421;-69
2021/10/12 02:36:05;;;;;;;32.97;22.65;;;12.90;66.30;;;;;;5055135;28;20387;-69
2021/10/12 02:38:31;;;;;;;36.28;24.13;;;13.00;66.10;;;;;;5055082;28;20024;-69
2021/10/12 02:40:57;;;;;;;39.42;24.92;;;13.00;66.00;;;;;;5055124;28;20037;-69
2021/10/12 02:43:23;;;;;;;42.10;25.15;;;13.00;66.00;;;;;;5055028;28;20032;-69
2021/10/12 02:45:48;;;;;;;35.55;24.58;;;12.90;65.90;;;;;;5054942;28;20036;-69
2021/10/12 02:48:14;;;;;;;36.58;23.15;;;12.90;66.00;;;;;;5054946;28;20051;-69
2021/10/12 02:50:42;;;;;;;40.75;24.70;;;12.90;66.00;;;;;;5054899;28;20071;-69
2021/10/12 02:53:08;;;;;;;41.40;25.25;;;12.90;66.00;;;;;;5054923;28;20017;-69
2021/10/12 02:55:34;;;;;;;35.30;22.98;;;12.90;66.00;;;;;;5054819;28;20029;-68
2021/10/12 02:58:00;;;;;;;36.17;24.33;;;12.90;65.90;;;;;;5054803;28;20098;-68
2021/10/12 03:00:26;;;;;;;42.25;27.27;;;12.90;65.70;;;;;;5054653;28;20025;-69
2021/10/12 03:02:51;;;;;;;40.53;26.60;;;12.90;65.70;;;;;;5054515;28;20466;-68
2021/10/12 03:05:17;;;;;;;40.20;26.88;;;12.80;65.50;;;;;;5054551;28;20021;-68
2021/10/12 03:07:43;;;;;;;39.15;25.55;;;12.70;65.50;;;;;;5054522;28;20060;-68
2021/10/12 03:10:09;;;;;;;41.90;25.95;;;12.60;65.50;;;;;;5053153;28;20028;-69
2021/10/12 03:12:34;;;;;;;42.55;25.80;;;12.60;65.70;;;;;;5054483;28;20032;-69
2021/10/12 03:15:00;;;;;;;47.15;29.10;;;12.50;65.80;;;;;;5054436;28;20389;-69
2021/10/12 03:17:26;;;;;;;39.13;25.45;;;12.50;66.20;;;;;;5053020;28;20075;-69
2021/10/12 03:19:52;;;;;;;42.05;24.13;;;12.40;66.30;;;;;;5054296;28;20052;-69
2021/10/12 03:22:18;;;;;;;38.28;25.23;;;12.30;66.40;;;;;;5054344;28;20538;-68
2021/10/12 03:24:44;;;;;;;43.22;25.85;;;12.30;66.60;;;;;;5054230;28;20025;-68
2021/10/12 03:27:13;;;;;;;44.33;26.48;;;12.20;66.60;;;;;;5054205;28;20061;-68
2021/10/12 03:29:39;;;;;;;42.10;26.02;;;12.10;66.80;;;;;;5054185;28;20586;-69
2021/10/12 03:32:06;;;;;;;43.10;25.00;;;12.10;66.90;;;;;;5054126;28;20096;-69
2021/10/12 03:34:32;;;;;;;40.35;25.92;;;12.00;66.90;;;;;;5052761;28;20028;-69
2021/10/12 03:36:59;;;;;;;38.38;24.63;;;12.00;67.00;;;;;;5054088;28;20390;-69
2021/10/12 03:39:26;;;;;;;36.15;23.27;;;12.00;67.10;;;;;;5054062;28;20021;-68
2021/10/12 03:41:52;;;;;;;37.83;24.05;;;11.90;67.20;;;;;;5054309;28;20028;-68
2021/10/12 03:44:21;;;;;;;37.85;24.52;;;11.90;67.30;;;;;;5054233;28;20079;-68
2021/10/12 03:46:47;;;;;;;33.50;21.83;;;11.80;67.40;;;;;;5054531;28;20025;-69
2021/10/12 03:49:13;;;;;;;39.97;24.00;;;11.80;67.40;;;;;;5053855;28;20079;-68
2021/10/12 03:51:43;;;;;;;39.13;25.98;;;11.70;68.40;;;;;;5053667;28;20486;-68
2021/10/12 03:54:13;;;;;;;34.70;23.30;;;11.70;67.90;;;;;;5053719;28;20382;-69
2021/10/12 03:56:39;;;;;;;39.53;25.50;;;11.60;68.00;;;;;;5053701;28;20032;-69
2021/10/12 03:59:05;;;;;;;38.47;23.30;;;11.60;68.10;;;;;;5053515;28;20029;-68
2021/10/12 04:01:31;;;;;;;38.28;25.08;;;11.60;68.20;;;;;;5053611;28;20063;-68
2021/10/12 04:03:57;;;;;;;37.03;24.05;;;11.60;68.50;;;;;;5051996;28;20506;-69
2021/10/12 04:06:23;;;;;;;39.35;24.65;;;11.50;68.60;;;;;;5053278;28;20044;-68
2021/10/12 04:08:48;;;;;;;34.55;22.33;;;11.50;68.70;;;;;;5053294;28;20478;-68
2021/10/12 04:11:14;;;;;;;34.13;22.40;;;11.50;68.60;;;;;;5052792;28;20021;-68
2021/10/12 04:13:41;;;;;;;36.50;22.73;;;11.50;68.70;;;;;;5053150;28;20486;-68
2021/10/12 04:16:07;;;;;;;34.20;22.75;;;11.50;68.80;;;;;;5053172;28;20035;-68
2021/10/12 04:18:33;;;;;;;31.27;20.63;;;11.40;68.80;;;;;;5053054;28;20025;-68
2021/10/12 04:20:58;;;;;;;35.22;22.35;;;11.40;68.90;;;;;;5053090;28;20375;-68
2021/10/12 04:23:25;;;;;;;36.72;21.15;;;11.50;69.00;;;;;;5053075;28;20440;-68
2021/10/12 04:25:51;;;;;;;39.92;23.27;;;11.40;68.70;;;;;;5052924;28;20017;-68
2021/10/12 04:28:17;;;;;;;31.30;20.65;;;11.40;68.70;;;;;;5053031;28;20090;-69
2021/10/12 04:30:45;;;;;;;32.05;21.65;;;11.40;68.80;;;;;;5052850;28;20056;-68
2021/10/12 04:33:13;;;;;;;34.88;21.88;;;11.40;68.90;;;;;;5052886;28;20061;-68
2021/10/12 04:35:39;;;;;;;30.75;20.00;;;11.40;69.00;;;;;;5052818;28;20074;-69
2021/10/12 04:38:05;;;;;;;36.38;18.73;;;11.40;68.90;;;;;;5052817;28;20433;-68
2021/10/12 04:40:31;;;;;;;33.92;20.42;;;11.40;68.80;;;;;;5052730;28;20025;-68
2021/10/12 04:42:58;;;;;;;26.20;18.75;;;11.40;68.90;;;;;;5052890;28;20151;-68
2021/10/12 04:45:24;;;;;;;26.05;15.85;;;11.40;68.80;;;;;;5052799;28;20025;-68
2021/10/12 04:47:52;;;;;;;24.02;15.65;;;11.40;68.60;;;;;;5053038;28;20021;-69
2021/10/12 04:50:18;;;;;;;24.33;16.15;;;11.40;68.60;;;;;;5052703;28;20013;-68
2021/10/12 04:52:45;;;;;;;22.52;14.68;;;11.40;68.50;;;;;;5053284;28;20047;-69
2021/10/12 04:55:11;;;;;;;22.13;14.57;;;11.40;68.40;;;;;;5056078;28;20100;-68
2021/10/12 04:57:37;;;;;;;23.95;15.80;;;11.40;68.40;;;;;;5066857;28;20032;-68
2021/10/12 05:00:06;;;;;;;26.52;17.27;;;11.40;68.40;;;;;;5057196;28;20033;-68
2021/10/12 05:02:32;;;;;;;24.90;17.00;;;11.40;68.40;;;;;;5071768;28;20025;-68
2021/10/12 05:04:58;;;;;;;27.40;17.40;;;11.40;68.40;;;;;;5072629;28;20115;-68
2021/10/12 05:07:24;;;;;;;25.10;16.13;;;11.40;68.40;;;;;;5060762;28;20104;-67
2021/10/12 05:09:49;;;;;;;24.33;16.13;;;11.40;68.50;;;;;;5056551;28;20134;-68
2021/10/12 05:12:15;;;;;;;27.10;16.55;;;11.50;68.70;;;;;;5072583;28;20583;-67
2021/10/12 05:14:41;;;;;;;21.48;14.02;;;11.50;68.70;;;;;;5072572;28;20082;-67
2021/10/12 05:17:15;;;;;;;25.92;16.02;;;11.50;68.70;;;;;;5072270;28;20029;-67
2021/10/12 05:19:41;;;;;;;23.60;15.25;;;11.50;68.90;;;;;;5055933;28;20032;-68
2021/10/12 05:22:07;;;;;;;23.67;14.10;;;11.60;69.00;;;;;;5050477;28;20068;-68
2021/10/12 05:24:33;;;;;;;21.65;13.90;;;11.60;68.90;;;;;;5053614;28;20424;-67
2021/10/12 05:26:58;;;;;;;22.08;14.30;;;11.70;68.90;;;;;;5055508;28;20048;-69
2021/10/12 05:29:24;;;;;;;21.33;14.38;;;11.70;68.70;;;;;;5055463;28;20021;-69
2021/10/12 05:31:52;;;;;;;23.65;13.82;;;11.70;68.50;;;;;;5065023;28;20382;-69
2021/10/12 05:34:20;;;;;;;25.67;13.07;;;11.80;68.40;;;;;;5075053;28;20021;-69
2021/10/12 05:36:46;;;;;;;18.17;12.93;;;11.80;68.30;;;;;;5075516;28;20029;-68
2021/10/12 05:39:12;;;;;;;19.08;12.48;;;11.80;68.80;;;;;;5074989;28;20056;-69
2021/10/12 05:41:38;;;;;;;20.02;12.18;;;11.80;68.30;;;;;;5075520;28;20029;-70
2021/10/12 05:44:04;;;;;;;17.42;11.63;;;11.80;69.10;;;;;;5073970;28;20151;-68
2021/10/12 05:46:30;;;;;;;18.45;11.90;;;11.80;68.40;;;;;;5072155;28;20027;-68
2021/10/12 05:48:57;;;;;;;17.77;12.02;;;11.90;68.50;;;;;;5075045;28;20021;-69
2021/10/12 05:51:25;;;;;;;17.63;11.35;;;11.90;68.50;;;;;;5075223;28;20016;-69
2021/10/12 05:53:53;;;;;;;19.00;11.25;;;11.90;68.50;;;;;;5061092;28;20371;-69
2021/10/12 05:56:26;;;;;;;20.13;13.85;;;12.00;68.70;;;;;;5060243;28;20036;-69
2021/10/12 05:58:51;;;;;;;21.25;14.30;;;12.00;68.50;;;;;;5055970;28;20021;-69
2021/10/12 06:01:19;;;;;;;19.50;12.85;;;12.10;68.50;;;;;;5055147;28;20037;-69
2021/10/12 06:03:45;;;;;;;19.77;13.30;;;12.20;68.50;;;;;;5059747;28;20476;-69
2021/10/12 06:06:12;;;;;;;21.88;13.07;;;12.20;68.20;;;;;;5061322;28;20104;-69
2021/10/12 06:08:39;;;;;;;20.25;12.02;;;12.20;67.90;;;;;;5054907;28;20021;-69
2021/10/12 06:11:06;;;;;;;21.88;13.98;;;12.30;67.90;;;;;;5054713;28;20025;-69
2021/10/12 06:13:34;;;;;;;24.63;14.02;;;12.30;67.60;;;;;;5069885;28;20111;-68
2021/10/12 06:15:59;;;;;;;20.50;12.77;;;12.40;67.50;;;;;;5067296;28;20053;-68
2021/10/12 06:18:26;;;;;;;17.92;11.13;;;12.40;67.20;;;;;;5068780;28;20055;-69
2021/10/12 06:20:53;;;;;;;19.95;12.32;;;12.40;67.10;;;;;;5072124;28;20036;-69
2021/10/12 06:23:20;;;;;;;24.55;12.52;;;12.50;67.20;;;;;;5062454;28;20039;-69
2021/10/12 06:25:46;;;;;;;64.63;13.05;;;12.50;66.90;;;;;;5054474;28;20029;-68
2021/10/12 06:28:15;;;;;;;21.90;11.68;;;12.60;67.00;;;;;;5054205;28;21377;-68
2021/10/12 06:30:46;;;;;;;23.13;12.50;;;12.60;66.80;;;;;;5053889;28;20051;-68
2021/10/12 06:33:13;;;;;;;22.02;13.15;;;12.70;66.50;;;;;;5053954;28;20039;-69
2021/10/12 06:35:39;;;;;;;53.45;12.88;;;12.70;66.20;;;;;;5053708;28;20025;-68
2021/10/12 06:38:07;;;;;;;100.75;16.30;;;12.80;66.20;;;;;;5064873;28;20119;-69
2021/10/12 06:40:34;;;;;;;34.40;13.68;;;12.80;66.00;;;;;;5071436;28;20029;-68
2021/10/12 06:43:01;;;;;;;21.85;11.90;;;12.90;65.90;;;;;;5053018;28;20021;-68
2021/10/12 06:45:29;;;;;;;19.70;11.45;;;12.90;65.80;;;;;;5054312;28;20496;-68
2021/10/12 06:47:55;;;;;;;28.88;13.43;;;13.00;65.50;;;;;;5054272;28;20035;-68
2021/10/12 06:50:24;;;;;;;21.13;12.50;;;13.00;65.10;;;;;;5054296;28;20024;-69
2021/10/12 06:52:50;;;;;;;19.63;11.07;;;13.10;65.20;;;;;;5068630;28;20025;-69
2021/10/12 06:55:17;;;;;;;22.05;12.25;;;13.10;65.20;;;;;;5054113;28;20029;-69
2021/10/12 06:57:43;;;;;;;16.98;10.70;;;13.20;65.00;;;;;;5054153;28;20031;-68
2021/10/12 07:00:13;;;;;;;18.23;11.77;;;13.20;65.10;;;;;;5053966;28;20047;-69
2021/10/12 07:02:43;;;;;;;23.35;12.93;;;13.30;64.90;;;;;;5071280;28;20044;-68
2021/10/12 07:05:10;;;;;;;22.80;12.80;;;13.30;64.40;;;;;;5056077;28;20029;-68
2021/10/12 07:07:36;;;;;;;20.67;12.90;;;13.40;64.30;;;;;;5054093;28;20074;-68
2021/10/12 07:10:03;;;;;;;21.27;12.05;;;13.50;63.90;;;;;;5073870;28;20024;-68
2021/10/12 07:12:29;;;;;;;18.35;11.23;;;13.50;63.90;;;;;;5073933;28;20385;-68
2021/10/12 07:14:55;;;;;;;20.80;11.48;;;13.50;63.80;;;;;;5068845;28;20033;-68
2021/10/12 07:17:20;;;;;;;24.60;12.88;;;13.60;64.00;;;;;;5068211;28;20037;-68
2021/10/12 07:19:46;;;;;;;31.63;13.70;;;13.60;63.80;;;;;;5068706;28;20035;-68
2021/10/12 07:22:12;;;;;;;38.53;13.60;;;13.70;63.60;;;;;;5068488;28;20368;-68
2021/10/12 07:24:38;;;;;;;25.15;13.05;;;13.80;63.50;;;;;;5065434;28;20067;-68
2021/10/12 07:27:03;;;;;;;30.95;14.43;;;13.80;63.40;;;;;;5072610;28;20021;-67
2021/10/12 07:29:29;;;;;;;24.75;12.73;;;13.90;63.00;;;;;;5072341;28;20024;-68
2021/10/12 07:31:55;;;;;;;42.28;13.05;;;13.90;63.10;;;;;;5073098;28;20111;-67
2021/10/12 07:34:21;;;;;;;23.40;13.13;;;13.90;62.80;;;;;;5072813;28;20095;-68
2021/10/12 07:36:46;;;;;;;20.13;11.90;;;14.00;62.70;;;;;;5072853;28;20040;-69
2021/10/12 07:39:12;;;;;;;23.25;11.60;;;14.00;62.50;;;;;;5073052;28;20118;-69
2021/10/12 07:41:38;;;;;;;32.35;13.55;;;14.00;62.70;;;;;;5071700;28;20032;-70
2021/10/12 07:44:06;;;;;;;35.30;13.98;;;14.00;62.20;;;;;;5071920;28;20056;-69
2021/10/12 07:46:32;;;;;;;18.73;11.27;;;14.00;62.10;;;;;;5072008;28;20021;-68
2021/10/12 07:48:58;;;;;;;20.65;12.18;;;14.00;62.30;;;;;;5072632;28;20033;-68
2021/10/12 07:51:29;;;;;;;19.10;11.98;;;14.00;62.30;;;;;;5056055;28;20432;-68
2021/10/12 07:54:00;;;;;;;24.00;12.93;;;14.10;62.10;;;;;;5052938;28;20046;-68
2021/10/12 07:56:36;;;;;;;23.67;12.50;;;14.10;62.30;;;;;;5053559;28;20029;-68
2021/10/12 07:59:11;;;;;;;22.20;13.60;;;14.10;62.30;;;;;;5055425;28;20036;-68
2021/10/12 08:01:39;;;;;;;19.48;12.80;;;14.10;62.00;;;;;;5052489;28;20490;-67
2021/10/12 08:04:05;;;;;;;22.63;11.70;;;14.10;62.20;;;;;;5066326;28;20083;-67
2021/10/12 08:06:31;;;;;;;19.40;11.88;;;14.10;62.50;;;;;;5072128;28;20032;-68
2021/10/12 08:08:58;;;;;;;18.30;12.07;;;14.10;62.70;;;;;;5068751;28;20029;-67
2021/10/12 08:11:25;;;;;;;16.40;10.75;;;14.20;62.90;;;;;;5053210;28;20146;-68
2021/10/12 08:13:57;;;;;;;19.70;12.93;;;14.30;63.30;;;;;;5060432;28;20028;-67
2021/10/12 08:16:31;;;;;;;20.20;12.13;;;14.40;62.70;;;;;;5053521;28;20036;-67
2021/10/12 08:19:06;;;;;;;21.92;12.77;;;14.40;62.60;;;;;;5051326;28;20036;-67
2021/10/12 08:21:32;;;;;;;23.60;14.02;;;14.50;62.40;;;;;;5061674;28;20029;-68
2021/10/12 08:24:00;;;;;;;19.80;12.43;;;14.50;62.00;;;;;;5069536;28;20498;-68
2021/10/12 08:26:27;;;;;;;23.48;12.48;;;14.60;62.10;;;;;;5067702;28;20029;-68
2021/10/12 08:28:53;;;;;;;22.65;12.77;;;14.60;62.30;;;;;;5061895;28;20024;-68
2021/10/12 08:31:19;;;;;;;22.80;13.38;;;14.60;62.60;;;;;;5084373;28;20081;-68
2021/10/12 08:33:46;;;;;;;30.45;13.23;;;14.60;62.50;;;;;;5080816;28;20021;-68
2021/10/12 08:36:12;;;;;;;20.80;12.88;;;14.60;63.00;;;;;;5062586;28;20021;-68
2021/10/12 08:38:42;;;;;;;26.10;15.63;;;14.60;63.20;;;;;;5052404;28;20363;-68
2021/10/12 08:41:09;;;;;;;22.65;13.55;;;14.70;63.30;;;;;;5068044;28;20081;-67
2021/10/12 08:43:36;;;;;;;24.27;14.18;;;14.70;63.30;;;;;;5051843;28;20029;-68
2021/10/12 08:46:02;;;;;;;22.05;13.05;;;14.70;63.20;;;;;;5051737;28;20390;-68
2021/10/12 08:48:32;;;;;;;24.08;13.43;;;14.70;63.10;;;;;;5051665;28;20051;-68
2021/10/12 08:51:00;;;;;;;28.65;13.88;;;14.80;62.90;;;;;;5053417;28;20090;-68
2021/10/12 08:53:28;;;;;;;21.95;13.13;;;14.70;62.60;;;;;;5067782;28;20017;-70
2021/10/12 08:55:54;;;;;;;21.67;13.85;;;14.70;63.00;;;;;;5051745;28;20023;-68
2021/10/12 08:58:20;;;;;;;21.05;13.57;;;14.70;63.20;;;;;;5051707;28;20025;-68
2021/10/12 09:00:46;;;;;;;18.98;12.55;;;14.70;63.90;;;;;;5051682;28;20017;-68
2021/10/12 09:03:26;;;;;;;29.33;13.23;;;14.80;64.70;;;;;;5059037;28;20139;-68
2021/10/12 09:06:00;;;;;;;22.27;13.38;;;14.80;65.20;;;;;;5056737;28;20020;-68
2021/10/12 09:08:27;;;;;;;20.35;13.55;;;14.90;64.80;;;;;;5055924;28;20036;-68
2021/10/12 09:10:55;;;;;;;46.50;15.27;;;15.00;64.70;;;;;;5054952;28;20025;-68
2021/10/12 09:13:22;;;;;;;27.02;13.55;;;15.20;64.80;;;;;;5069903;28;20267;-68
2021/10/12 09:16:11;;;;;;;27.42;14.80;;;15.30;65.70;;;;;;5064962;28;20025;-68
2021/10/12 09:18:48;;;;;;;21.00;13.52;;;15.50;64.00;;;;;;5058939;28;20071;-68
2021/10/12 09:21:16;;;;;;;22.70;11.77;;;15.60;63.60;;;;;;5051310;28;20095;-68
2021/10/12 09:23:43;;;;;;;20.95;12.93;;;15.70;63.30;;;;;;5051030;28;20086;-69
2021/10/12 09:26:24;;;;;;;20.80;12.35;;;15.90;63.00;;;;;;5049505;28;20041;-68
2021/10/12 09:28:57;;;;;;;20.40;13.05;;;16.00;62.90;;;;;;5050832;28;20021;-68
2021/10/12 09:31:30;;;;;;;17.38;12.02;;;16.20;61.80;;;;;;5054140;28;20083;-68
2021/10/12 09:33:56;;;;;;;15.98;11.20;;;16.20;61.10;;;;;;5060162;28;20024;-68
2021/10/12 09:36:35;;;;;;;17.38;11.80;;;16.30;60.80;;;;;;5051324;28;20029;-68
2021/10/12 09:39:02;;;;;;;16.60;11.23;;;16.40;59.80;;;;;;5053675;28;20021;-69
2021/10/12 09:41:28;;;;;;;18.85;12.07;;;16.40;60.10;;;;;;5062919;28;20043;-69
2021/10/12 09:44:14;;;;;;;18.58;11.30;;;16.40;59.70;;;;;;5071407;28;20025;-69
2021/10/12 09:46:42;;;;;;;18.42;10.93;;;16.40;59.80;;;;;;5071500;28;20017;-69
2021/10/12 09:49:11;;;;;;;13.70;9.40;;;16.50;59.90;;;;;;5056955;28;20028;-69
2021/10/12 09:51:43;;;;;;;18.13;10.85;;;16.60;60.30;;;;;;5050079;28;20117;-69
2021/10/12 09:54:23;;;;;;;14.68;10.63;;;16.70;60.20;;;;;;5052000;28;20096;-69
2021/10/12 09:56:49;;;;;;;16.75;11.02;;;16.70;59.60;;;;;;5051913;28;20021;-69
2021/10/12 09:59:16;;;;;;;17.45;11.43;;;16.80;59.10;;;;;;5054554;28;20025;-70
2021/10/12 10:01:45;;;;;;;16.58;11.88;;;16.90;59.00;;;;;;5060492;28;20033;-69
2021/10/12 10:04:14;;;;;;;16.50;10.98;;;17.00;58.30;;;;;;5060605;28;20116;-69
2021/10/12 10:06:43;;;;;;;19.10;11.68;;;17.10;58.10;;;;;;5069833;28;20025;-69
2021/10/12 10:09:14;;;;;;;13.18;9.25;;;17.10;57.60;;;;;;5068573;28;20032;-69
2021/10/12 10:11:42;;;;;;;17.67;12.18;;;17.10;58.10;;;;;;5073046;28;20025;-69
2021/10/12 10:14:09;;;;;;;17.38;11.30;;;17.10;57.30;;;;;;5070662;28;20367;-69
2021/10/12 10:16:38;;;;;;;14.68;10.75;;;17.10;57.40;;;;;;5075643;28;20044;-69
2021/10/12 10:19:11;;;;;;;18.02;10.70;;;17.10;57.10;;;;;;5062517;28;20027;-69
2021/10/12 10:21:42;;;;;;;18.10;11.65;;;17.10;57.10;;;;;;5073839;28;20111;-69
2021/10/12 10:24:11;;;;;;;16.48;11.18;;;17.00;56.80;;;;;;5055417;28;20035;-69
2021/10/12 10:26:39;;;;;;;17.15;11.35;;;17.00;57.20;;;;;;5071778;28;20059;-70
2021/10/12 10:29:37;;;;;;;18.17;11.30;;;16.90;57.40;;;;;;5065479;28;20028;-69
2021/10/12 10:32:22;;;;;;;23.13;12.90;;;16.90;57.60;;;;;;5064572;28;20021;-70
2021/10/12 10:35:02;;;;;;;18.08;11.73;;;16.80;57.90;;;;;;5070873;28;20028;-65
2021/10/12 10:37:33;;;;;;;19.05;12.18;;;16.80;58.20;;;;;;5054778;28;20078;-62
2021/10/12 10:40:34;;;;;;;23.85;12.57;;;16.70;58.20;;;;;;5055273;28;20082;-65
2021/10/12 10:43:00;;;;;;;17.27;10.60;;;16.60;57.70;;;;;;5055524;28;20057;-65
2021/10/12 10:45:45;;;;;;;16.45;11.65;;;16.60;58.10;;;;;;5053925;28;20025;-64
2021/10/12 10:48:13;;;;;;;18.25;10.50;;;16.50;58.10;;;;;;5054508;28;20082;-65
2021/10/12 10:50:40;;;;;;;16.85;11.25;;;16.50;58.60;;;;;;5054855;28;20056;-63
2021/10/12 10:53:09;;;;;;;16.67;10.25;;;16.50;58.60;;;;;;5054947;28;20109;-63
2021/10/12 10:55:45;;;;;;;32.90;12.38;;;16.40;58.60;;;;;;5054909;28;20454;-63
2021/10/12 10:58:18;;;;;;;18.63;10.75;;;16.40;58.60;;;;;;5054666;28;20498;-63
2021/10/12 11:00:44;;;;;;;17.05;11.13;;;16.50;59.00;;;;;;5054297;28;20387;-63
2021/10/12 11:03:28;;;;;;;16.92;11.13;;;16.50;58.90;;;;;;5054380;28;20056;-64
2021/10/12 11:05:55;;;;;;;11.10;8.52;;;16.50;58.40;;;;;;5054647;28;20032;-64
2021/10/12 11:08:27;;;;;;;13.75;9.57;;;16.60;58.30;;;;;;5054527;28;20037;-64
2021/10/12 11:11:07;;;;;;;18.35;9.48;;;16.50;57.60;;;;;;5054530;28;20013;-64
2021/10/12 11:13:35;;;;;;;19.73;9.07;;;16.40;57.60;;;;;;5054170;28;20360;-63
2021/10/12 11:16:04;;;;;;;14.75;8.95;;;16.40;57.90;;;;;;5054223;28;20021;-63
2021/10/12 11:18:30;;;;;;;11.25;7.53;;;16.40;57.80;;;;;;5054420;28;20021;-64
2021/10/12 11:20:59;;;;;;;19.60;9.25;;;16.30;57.90;;;;;;5053279;28;20092;-65
2021/10/12 11:23:30;;;;;;;12.50;8.48;;;16.30;58.00;;;;;;5054304;28;20017;-65
2021/10/12 11:25:58;;;;;;;10.85;7.30;;;16.30;57.70;;;;;;5054198;28;20029;-63
2021/10/12 11:28:26;;;;;;;17.73;8.13;;;16.20;57.90;;;;;;5052700;28;20048;-63
2021/10/12 11:30:52;;;;;;;13.65;7.40;;;16.20;58.30;;;;;;5054024;28;20021;-64
2021/10/12 11:33:36;;;;;;;11.77;7.15;;;16.20;58.50;;;;;;5053876;28;20527;-64
2021/10/12 11:36:04;;;;;;;10.00;7.07;;;16.20;58.60;;;;;;5053836;28;20062;-65
2021/10/12 11:38:33;;;;;;;10.20;6.88;;;16.30;58.70;;;;;;5053702;28;20108;-64
2021/10/12 11:40:59;;;;;;;13.13;7.00;;;16.40;58.50;;;;;;5053915;28;20021;-64
2021/10/12 11:43:32;;;;;;;13.07;7.38;;;16.50;58.60;;;;;;5053696;28;20043;-64
2021/10/12 11:46:00;;;;;;;13.05;6.30;;;16.50;57.70;;;;;;5053508;28;20413;-65
2021/10/12 11:48:26;;;;;;;11.93;7.32;;;16.60;57.80;;;;;;5053571;28;20025;-64
2021/10/12 11:50:51;;;;;;;11.23;6.43;;;16.50;57.10;;;;;;5053635;28;20018;-64
2021/10/12 11:53:32;;;;;;;9.80;6.88;;;16.50;58.00;;;;;;5053549;28;20471;-64
2021/10/12 11:56:09;;;;;;;9.95;6.60;;;16.40;58.40;;;;;;5053566;28;20028;-65
2021/10/12 11:58:36;;;;;;;14.10;7.57;;;16.40;59.10;;;;;;5053594;28;20063;-64
2021/10/12 12:01:04;;;;;;;10.40;7.32;;;16.30;59.00;;;;;;5053631;28;20032;-65
2021/10/12 12:03:31;;;;;;;9.15;6.50;;;16.10;59.20;;;;;;5052976;28;20098;-64
2021/10/12 12:05:57;;;;;;;11.18;7.40;;;16.00;59.60;;;;;;5053529;28;20040;-64
2021/10/12 12:08:24;;;;;;;8.52;6.43;;;16.00;60.00;;;;;;5053359;28;20029;-64
2021/10/12 12:10:51;;;;;;;8.77;5.63;;;15.90;59.90;;;;;;5053448;28;20032;-65
2021/10/12 12:13:17;;;;;;;11.90;7.00;;;15.80;60.20;;;;;;5053387;28;20530;-65
2021/10/12 12:15:43;;;;;;;16.25;7.15;;;15.70;60.00;;;;;;5053137;28;20048;-66
2021/10/12 12:18:14;;;;;;;8.70;5.70;;;15.60;60.00;;;;;;5055807;28;20039;-66
2021/10/12 12:20:57;;;;;;;11.55;6.22;;;15.50;60.70;;;;;;5052500;28;20526;-67
2021/10/12 12:23:36;;;;;;;8.70;5.85;;;15.50;61.10;;;;;;5053164;28;20108;-67
2021/10/12 12:26:04;;;;;;;7.53;5.28;;;15.50;61.80;;;;;;5052897;28;20099;-66
2021/10/12 12:28:31;;;;;;;8.68;5.10;;;15.60;62.60;;;;;;5053269;28;20017;-67
2021/10/12 12:30:57;;;;;;;7.72;5.47;;;15.70;63.40;;;;;;5053155;28;20027;-68